createdAt,value
2023-04-21T00:01:52.738Z,4.60
2023-04-21T00:04:22.248Z,4.80
2023-04-21T00:06:52.720Z,4.50
2023-04-21T00:09:22.122Z,4.40
2023-04-21T00:11:52.812Z,4.60
2023-04-21T00:14:22.262Z,5.00
2023-04-21T00:16:52.854Z,5.10
2023-04-21T00:19:23.384Z,5.20
2023-04-21T00:21:58.048Z,4.50
2023-04-21T00:24:27.570Z,4.80
2023-04-21T00:26:56.802Z,5.10
2023-04-21T00:29:25.945Z,5.60
2023-04-21T00:31:55.292Z,6.10
2023-04-21T00:34:24.668Z,5.70
2023-04-21T00:36:53.955Z,5.90
2023-04-21T00:39:23.613Z,5.70
2023-04-21T00:41:53.986Z,5.60
2023-04-21T00:44:23.602Z,5.00
2023-04-21T00:46:53.111Z,5.10
2023-04-21T00:49:25.576Z,4.90
2023-04-21T00:51:55.766Z,5.40
2023-04-21T00:54:25.818Z,5.80
2023-04-21T00:56:57.903Z,5.90
2023-04-21T00:59:27.225Z,5.90
2023-04-21T01:01:56.648Z,6.00
2023-04-21T01:04:26.779Z,5.60
2023-04-21T01:06:56.213Z,4.90
2023-04-21T01:09:26.512Z,6.00
2023-04-21T01:12:06.640Z,5.20
2023-04-21T01:14:36.612Z,5.80
2023-04-21T01:17:07.243Z,5.80
2023-04-21T01:19:39.490Z,5.50
2023-04-21T01:22:11.244Z,5.90
2023-04-21T01:24:41.599Z,6.10
2023-04-21T01:27:12.054Z,5.50
2023-04-21T01:29:42.931Z,5.90
2023-04-21T01:32:15.283Z,6.00
2023-04-21T01:34:45.239Z,5.90
2023-04-21T01:37:16.761Z,6.60
2023-04-21T01:39:52.764Z,7.20
2023-04-21T01:42:24.725Z,6.40
2023-04-21T01:44:55.899Z,6.50
2023-04-21T01:47:27.285Z,6.40
2023-04-21T01:49:56.645Z,6.70
2023-04-21T01:52:27.266Z,5.90
2023-04-21T01:54:56.669Z,6.40
2023-04-21T01:57:26.334Z,7.10
2023-04-21T01:59:57.064Z,6.90
2023-04-21T02:02:26.947Z,7.00
2023-04-21T02:04:57.111Z,7.00
2023-04-21T02:07:27.982Z,7.20
2023-04-21T02:09:57.335Z,7.40
2023-04-21T02:12:28.013Z,6.60
2023-04-21T02:14:57.276Z,7.00
2023-04-21T02:17:27.255Z,7.50
2023-04-21T02:19:57.414Z,7.60
2023-04-21T02:22:27.674Z,7.90
2023-04-21T02:24:57.580Z,8.50
2023-04-21T02:27:27.702Z,7.50
2023-04-21T02:29:58.138Z,7.00
2023-04-21T02:32:28.942Z,7.30
2023-04-21T02:34:58.241Z,6.80
2023-04-21T02:37:28.917Z,7.90
2023-04-21T02:39:58.243Z,7.50
2023-04-21T02:42:28.183Z,7.30
2023-04-21T02:44:58.452Z,7.00
2023-04-21T02:47:28.574Z,6.60
2023-04-21T02:49:58.799Z,7.30
2023-04-21T02:52:28.909Z,6.90
2023-04-21T02:54:59.123Z,7.00
2023-04-21T02:57:31.353Z,8.00
2023-04-21T03:00:00.753Z,7.50
2023-04-21T03:02:30.868Z,7.00
2023-04-21T03:05:00.266Z,7.00
2023-04-21T03:07:29.826Z,6.80
2023-04-21T03:09:59.787Z,7.20
2023-04-21T03:12:30.140Z,7.40
2023-04-21T03:15:00.116Z,7.50
2023-04-21T03:17:32.925Z,7.40
2023-04-21T03:20:06.372Z,7.50
2023-04-21T03:22:35.779Z,7.70
2023-04-21T03:25:06.881Z,8.30
2023-04-21T03:27:36.521Z,7.60
2023-04-21T03:30:13.141Z,8.00
2023-04-21T03:32:43.160Z,7.00
2023-04-21T03:35:14.973Z,7.00
2023-04-21T03:37:44.496Z,8.00
2023-04-21T03:40:13.678Z,8.10
2023-04-21T03:42:43.030Z,8.90
2023-04-21T03:45:13.077Z,8.60
2023-04-21T03:47:42.539Z,8.30
2023-04-21T03:50:11.956Z,8.30
2023-04-21T03:52:41.569Z,8.30
2023-04-21T03:55:11.137Z,8.90
2023-04-21T03:57:41.199Z,9.80
2023-04-21T04:00:13.068Z,10.20
2023-04-21T04:02:43.547Z,9.30
2023-04-21T04:05:12.989Z,6.30
2023-04-21T04:07:42.445Z,7.20
2023-04-21T04:10:11.799Z,7.50
2023-04-21T04:12:40.946Z,8.90
2023-04-21T04:15:13.867Z,9.40
2023-04-21T04:17:43.269Z,9.00
2023-04-21T04:20:12.609Z,9.70
2023-04-21T04:22:41.842Z,9.10
2023-04-21T04:25:12.408Z,8.60
2023-04-21T04:27:41.559Z,9.40
2023-04-21T04:30:12.032Z,10.30
2023-04-21T04:32:41.550Z,9.60
2023-04-21T04:35:13.147Z,9.80
2023-04-21T04:37:42.372Z,9.80
2023-04-21T04:40:12.918Z,11.50
2023-04-21T04:42:42.491Z,11.10
2023-04-21T04:45:13.406Z,10.10
2023-04-21T04:47:42.993Z,10.20
2023-04-21T04:50:12.569Z,10.80
2023-04-21T04:52:41.890Z,11.10
2023-04-21T04:55:11.177Z,11.40
2023-04-21T04:57:40.532Z,11.80
2023-04-21T05:00:14.026Z,12.20
2023-04-21T05:02:43.828Z,11.10
2023-04-21T05:05:13.413Z,11.30
2023-04-21T05:07:42.864Z,11.50
2023-04-21T05:10:12.577Z,12.40
2023-04-21T05:12:41.796Z,13.20
2023-04-21T05:15:12.002Z,12.90
2023-04-21T05:17:41.522Z,13.60
2023-04-21T05:20:13.458Z,14.10
2023-04-21T05:23:17.391Z,12.80
2023-04-21T05:25:47.055Z,12.50
2023-04-21T05:28:16.837Z,13.40
2023-04-21T05:30:46.093Z,12.80
2023-04-21T05:33:18.015Z,13.70
2023-04-21T05:35:47.360Z,13.50
2023-04-21T05:38:17.690Z,13.30
2023-04-21T05:40:55.067Z,13.90
2023-04-21T05:43:24.682Z,12.60
2023-04-21T05:45:54.244Z,13.40
2023-04-21T05:48:23.992Z,13.00
2023-04-21T05:50:53.831Z,11.60
2023-04-21T05:53:23.948Z,10.90
2023-04-21T05:55:57.671Z,10.90
2023-04-21T05:58:28.134Z,12.40
2023-04-21T06:01:00.400Z,10.80
2023-04-21T06:03:31.957Z,11.30
2023-04-21T06:06:02.886Z,10.60
2023-04-21T06:08:35.502Z,10.70
2023-04-21T06:11:06.633Z,10.50
2023-04-21T06:13:38.558Z,9.10
2023-04-21T06:16:11.423Z,8.80
2023-04-21T06:18:47.825Z,9.10
2023-04-21T06:21:17.224Z,8.40
2023-04-21T06:23:57.189Z,8.80
2023-04-21T06:26:27.664Z,8.70
2023-04-21T06:28:58.482Z,8.20
2023-04-21T06:31:28.252Z,8.30
2023-04-21T06:33:57.608Z,6.50
2023-04-21T06:36:28.450Z,7.50
2023-04-21T06:38:57.890Z,6.60
2023-04-21T06:41:28.443Z,6.00
2023-04-21T06:44:01.774Z,6.20
2023-04-21T06:46:34.361Z,5.60
2023-04-21T06:49:04.713Z,5.80
2023-04-21T06:51:34.527Z,5.10
2023-04-21T06:54:05.017Z,5.20
2023-04-21T06:56:37.496Z,5.30
2023-04-21T06:59:10.563Z,5.20
2023-04-21T07:01:42.860Z,4.70
2023-04-21T07:04:12.054Z,4.60
2023-04-21T07:06:43.050Z,4.90
2023-04-21T07:09:13.060Z,5.80
2023-04-21T07:11:42.513Z,4.70
2023-04-21T07:14:11.740Z,4.60
2023-04-21T07:16:41.576Z,4.50
2023-04-21T07:19:11.293Z,4.10
2023-04-21T07:21:42.551Z,3.70
2023-04-21T07:24:11.924Z,3.50
2023-04-21T07:26:42.405Z,3.70
2023-04-21T07:29:12.071Z,3.60
2023-04-21T07:31:43.154Z,4.10
2023-04-21T07:34:15.240Z,4.10
2023-04-21T07:36:44.593Z,4.00
2023-04-21T07:39:13.864Z,4.60
2023-04-21T07:41:47.452Z,3.80
2023-04-21T07:44:17.470Z,3.00
2023-04-21T07:46:46.816Z,3.40
2023-04-21T07:49:16.697Z,3.80
2023-04-21T07:51:46.278Z,3.40
2023-04-21T07:54:15.909Z,3.60
2023-04-21T07:56:45.508Z,3.70
2023-04-21T07:59:14.913Z,3.80
2023-04-21T08:01:44.227Z,3.30
2023-04-21T08:04:13.638Z,4.20
2023-04-21T08:06:45.811Z,4.10
2023-04-21T08:09:15.672Z,4.60
2023-04-21T08:11:47.995Z,4.40
2023-04-21T08:14:17.726Z,4.20
2023-04-21T08:16:51.499Z,3.90
2023-04-21T08:19:24.354Z,4.50
2023-04-21T08:21:58.844Z,4.00
2023-04-21T08:24:30.881Z,3.60
2023-04-21T08:27:02.410Z,3.40
2023-04-21T08:29:32.433Z,3.20
2023-04-21T08:32:02.108Z,3.00
2023-04-21T08:34:32.789Z,2.90
2023-04-21T08:37:04.768Z,3.10
2023-04-21T08:39:38.641Z,3.60
2023-04-21T08:42:15.394Z,3.40
2023-04-21T08:44:48.108Z,4.10
2023-04-21T08:47:25.705Z,4.50
2023-04-21T08:49:59.132Z,4.10
2023-04-21T08:52:28.497Z,3.30
2023-04-21T08:55:01.783Z,3.50
2023-04-21T08:57:31.109Z,3.30
2023-04-21T09:00:00.390Z,4.00
2023-04-21T09:03:01.473Z,4.00
2023-04-21T09:05:33.039Z,3.50
2023-04-21T09:08:16.351Z,4.10
2023-04-21T09:10:47.918Z,4.20
2023-04-21T09:13:22.667Z,3.50
2023-04-21T09:15:52.761Z,3.50
2023-04-21T09:18:24.502Z,4.10
2023-04-21T09:21:10.177Z,4.70
2023-04-21T09:23:52.858Z,4.00
2023-04-21T09:26:23.247Z,4.60
2023-04-21T09:28:54.068Z,3.90
2023-04-21T09:31:24.724Z,4.30
2023-04-21T09:33:59.657Z,3.90
2023-04-21T09:36:33.715Z,4.10
2023-04-21T09:41:46.844Z,3.60
2023-04-21T09:44:17.142Z,3.60
2023-04-21T09:46:50.542Z,3.50
2023-04-21T09:49:27.385Z,3.90
2023-04-21T09:52:17.646Z,4.50
2023-04-21T09:54:56.240Z,4.00
2023-04-21T09:57:30.505Z,3.60
2023-04-21T10:00:04.874Z,3.40
2023-04-21T10:02:37.383Z,3.60
2023-04-21T10:05:13.650Z,3.20
2023-04-21T10:07:49.988Z,3.70
2023-04-21T10:10:23.600Z,3.20
2023-04-21T10:12:53.666Z,3.40
2023-04-21T10:15:32.937Z,3.80
2023-04-21T10:18:20.570Z,3.60
2023-04-21T10:21:00.018Z,3.80
2023-04-21T10:23:38.497Z,3.90
2023-04-21T10:26:12.080Z,3.70
2023-04-21T10:28:46.933Z,3.50
2023-04-21T10:31:29.901Z,3.00
2023-04-21T10:34:25.355Z,3.20
2023-04-21T10:37:15.675Z,3.40
2023-04-21T10:39:54.893Z,3.10
2023-04-21T10:42:34.593Z,3.00
2023-04-21T10:45:16.499Z,3.40
2023-04-21T10:47:56.227Z,3.10
2023-04-21T10:50:30.799Z,2.90
2023-04-21T10:53:12.332Z,2.90
2023-04-21T10:55:49.150Z,3.10
2023-04-21T10:58:25.376Z,3.00
2023-04-21T11:00:59.288Z,3.30
2023-04-21T11:03:35.623Z,2.80
2023-04-21T11:06:18.069Z,2.90
2023-04-21T11:09:03.195Z,4.30
2023-04-21T11:11:32.639Z,3.20
2023-04-21T11:14:07.236Z,2.90
2023-04-21T11:16:37.750Z,3.00
2023-04-21T11:19:07.894Z,3.80
2023-04-21T11:21:37.449Z,2.60
2023-04-21T11:24:13.828Z,2.60
2023-04-21T11:26:44.653Z,2.60
2023-04-21T11:29:15.481Z,3.10
2023-04-21T11:32:00.654Z,3.20
2023-04-21T11:34:30.460Z,3.10
2023-04-21T11:40:01.691Z,3.00
2023-04-21T11:42:42.407Z,3.40
2023-04-21T11:45:22.808Z,2.90
2023-04-21T11:48:13.750Z,3.40
2023-04-21T11:50:48.521Z,3.00
2023-04-21T11:53:21.306Z,3.10
2023-04-21T11:55:51.243Z,2.80
2023-04-21T11:58:22.177Z,3.50
2023-04-21T12:00:53.041Z,2.60
2023-04-21T12:03:23.802Z,3.10
2023-04-21T12:06:00.646Z,3.30
2023-04-21T12:08:35.286Z,2.90
2023-04-21T12:11:07.786Z,3.20
2023-04-21T12:13:47.047Z,3.00
2023-04-21T12:16:16.841Z,2.80
2023-04-21T12:18:47.930Z,2.90
2023-04-21T12:21:17.721Z,3.30
2023-04-21T12:23:47.467Z,2.80
2023-04-21T12:26:16.983Z,2.80
2023-04-21T12:28:48.405Z,3.00
2023-04-21T12:31:20.979Z,2.70
2023-04-21T12:33:51.754Z,3.00
2023-04-21T12:36:21.745Z,3.10
2023-04-21T12:38:56.317Z,2.80
2023-04-21T12:41:25.899Z,3.00
2023-04-21T12:44:00.518Z,2.80
2023-04-21T12:46:32.878Z,2.80
2023-04-21T12:49:10.177Z,2.90
2023-04-21T12:51:41.624Z,2.60
2023-04-21T12:54:11.586Z,3.20
2023-04-21T12:56:42.351Z,3.10
2023-04-21T12:59:14.595Z,3.10
2023-04-21T13:01:45.326Z,2.90
2023-04-21T13:04:16.331Z,2.80
2023-04-21T13:06:48.177Z,3.30
2023-04-21T13:09:18.459Z,3.00
2023-04-21T13:11:48.638Z,2.90
2023-04-21T13:14:19.688Z,3.50
2023-04-21T13:16:49.308Z,2.80
2023-04-21T13:19:19.760Z,2.60
2023-04-21T13:21:52.055Z,2.90
2023-04-21T13:24:25.406Z,3.00
2023-04-21T13:26:54.561Z,2.80
2023-04-21T13:29:28.728Z,3.10
2023-04-21T13:31:58.229Z,3.00
2023-04-21T13:34:28.300Z,3.40
2023-04-21T13:36:57.769Z,2.90
2023-04-21T13:39:27.471Z,2.80
2023-04-21T13:41:57.539Z,3.10
2023-04-21T13:44:27.772Z,2.80
2023-04-21T13:46:57.496Z,2.90
2023-04-21T13:49:28.105Z,3.20
2023-04-21T13:51:57.375Z,3.10
2023-04-21T13:54:27.831Z,2.90
2023-04-21T13:56:58.120Z,3.10
2023-04-21T13:59:29.005Z,2.50
2023-04-21T14:01:58.470Z,3.30
2023-04-21T14:04:28.147Z,3.50
2023-04-21T14:06:57.811Z,3.30
2023-04-21T14:09:27.819Z,2.80
2023-04-21T14:11:57.175Z,3.00
2023-04-21T14:14:37.951Z,2.70
2023-04-21T14:17:09.317Z,3.70
2023-04-21T14:19:39.264Z,3.10
2023-04-21T14:22:11.631Z,3.20
2023-04-21T14:24:46.286Z,3.10
2023-04-21T14:27:15.905Z,3.30
2023-04-21T14:29:45.401Z,3.20
2023-04-21T14:32:15.741Z,2.70
2023-04-21T14:34:47.360Z,2.80
2023-04-21T14:37:17.843Z,2.90
2023-04-21T14:39:50.832Z,3.50
2023-04-21T14:42:23.241Z,2.70
2023-04-21T14:44:54.156Z,3.10
2023-04-21T14:47:32.828Z,3.40
2023-04-21T14:50:03.441Z,3.60
2023-04-21T14:52:34.690Z,3.20
2023-04-21T14:55:12.903Z,3.10
2023-04-21T14:57:44.078Z,3.80
2023-04-21T15:00:17.398Z,3.50
2023-04-21T15:02:48.413Z,3.10
2023-04-21T15:05:23.732Z,3.30
2023-04-21T15:07:58.130Z,3.70
2023-04-21T15:10:31.766Z,3.20
2023-04-21T15:13:04.521Z,3.70
2023-04-21T15:15:34.397Z,3.40
2023-04-21T15:18:05.519Z,4.60
2023-04-21T15:23:47.961Z,4.00
2023-04-21T15:29:55.728Z,3.60
2023-04-21T15:29:55.737Z,3.50
2023-04-21T15:32:26.004Z,3.50
2023-04-21T15:34:58.024Z,3.50
2023-04-21T15:37:27.897Z,3.50
2023-04-21T15:41:00.188Z,3.50
2023-04-21T15:44:17.921Z,3.80
2023-04-21T15:47:38.968Z,3.60
2023-04-21T15:50:52.130Z,4.00
2023-04-21T15:54:03.479Z,4.50
2023-04-21T15:57:02.103Z,4.60
2023-04-21T16:00:24.223Z,4.40
2023-04-21T16:04:39.785Z,4.70
2023-04-21T16:10:31.187Z,4.70
2023-04-21T16:13:57.566Z,4.30
2023-04-21T16:16:54.061Z,5.30
2023-04-21T16:20:03.400Z,5.60
2023-04-21T16:23:03.884Z,5.00
2023-04-21T16:36:05.047Z,5.20
2023-04-21T16:37:55.979Z,4.60
2023-04-21T16:40:36.758Z,5.30
2023-04-21T16:55:04.035Z,5.50
2023-04-21T16:57:51.989Z,5.70
2023-04-21T17:00:22.775Z,5.90
2023-04-21T17:02:53.313Z,5.60
2023-04-21T17:05:28.682Z,5.70
2023-04-21T17:21:59.532Z,5.20
2023-04-21T17:22:13.771Z,5.70
2023-04-21T17:24:33.151Z,6.10
2023-04-21T17:27:14.426Z,4.50
2023-04-21T17:29:43.799Z,5.30
2023-04-21T17:32:19.069Z,4.60
2023-04-21T17:34:51.392Z,5.20
2023-04-21T17:37:22.324Z,5.60
2023-04-21T17:39:54.082Z,5.70
2023-04-21T17:42:33.160Z,5.70
2023-04-21T17:45:16.233Z,6.00
2023-04-21T17:47:46.255Z,6.60
2023-04-21T17:50:20.318Z,8.00
2023-04-21T17:52:51.908Z,7.20
2023-04-21T17:55:26.528Z,7.60
2023-04-21T17:57:57.916Z,7.00
2023-04-21T18:00:28.959Z,6.80
2023-04-21T18:02:58.143Z,6.80
2023-04-21T18:05:30.192Z,7.70
2023-04-21T18:13:44.539Z,6.70
2023-04-21T18:26:38.015Z,7.90
2023-04-21T18:27:57.946Z,7.30
2023-04-21T18:28:28.601Z,6.60
2023-04-21T18:30:28.788Z,6.50
2023-04-21T18:33:01.307Z,6.20
2023-04-21T18:35:34.315Z,5.40
2023-04-21T18:38:07.323Z,5.50
2023-04-21T18:40:37.669Z,5.70
2023-04-21T18:43:07.268Z,5.00
2023-04-21T18:54:09.253Z,4.20
2023-04-21T18:56:32.806Z,5.20
2023-04-21T18:56:47.601Z,5.00
2023-04-21T18:59:17.353Z,4.20
2023-04-21T19:00:40.171Z,4.80
2023-04-21T19:01:54.115Z,4.80
2023-04-21T19:04:26.962Z,4.30
2023-04-21T19:07:01.343Z,4.90
2023-04-21T19:10:00.482Z,5.10
2023-04-21T19:12:30.079Z,5.20
2023-04-21T19:15:08.102Z,4.50
2023-04-21T19:17:56.092Z,4.90
2023-04-21T19:20:25.334Z,4.20
2023-04-21T19:22:54.907Z,5.70
2023-04-21T19:25:25.148Z,5.30
2023-04-21T19:28:03.451Z,4.80
2023-04-21T19:30:33.338Z,5.30
2023-04-21T19:33:04.785Z,5.40
2023-04-21T19:35:34.836Z,5.00
2023-04-21T19:38:04.629Z,5.00
2023-04-21T19:40:36.414Z,4.90
2023-04-21T19:43:08.577Z,4.80
2023-04-21T19:45:38.238Z,5.10
2023-04-21T19:48:08.298Z,5.60
2023-04-21T19:50:40.934Z,5.10
2023-04-21T19:53:14.150Z,5.90
2023-04-21T19:55:48.128Z,5.60
2023-04-21T19:58:38.984Z,8.40
2023-04-21T20:01:10.493Z,9.10
2023-04-21T20:03:41.836Z,11.00
2023-04-21T20:06:12.627Z,10.50
2023-04-21T20:08:42.427Z,11.00
2023-04-21T20:11:12.098Z,10.00
2023-04-21T20:13:41.382Z,11.20
2023-04-21T20:16:11.297Z,11.00
2023-04-21T20:18:41.521Z,10.20
2023-04-21T20:21:11.366Z,11.10
2023-04-21T20:23:40.792Z,10.80
2023-04-21T20:26:10.275Z,10.10
2023-04-21T20:28:44.790Z,10.00
2023-04-21T20:31:18.737Z,8.10
2023-04-21T20:33:48.672Z,8.50
2023-04-21T20:36:24.620Z,6.90
2023-04-21T20:39:02.183Z,6.90
2023-04-21T20:42:13.105Z,6.70
2023-04-21T20:44:43.380Z,6.30
2023-04-21T20:47:16.985Z,6.90
2023-04-21T20:49:47.157Z,6.60
2023-04-21T20:52:18.006Z,6.30
2023-04-21T20:54:47.375Z,6.20
2023-04-21T20:57:17.352Z,6.50
2023-04-21T20:59:57.648Z,5.90
2023-04-21T21:02:31.351Z,5.70
2023-04-21T21:05:04.340Z,6.30
2023-04-21T21:07:34.249Z,6.20
2023-04-21T21:10:10.862Z,6.40
2023-04-21T21:12:42.183Z,5.90
2023-04-21T21:15:13.562Z,6.20
2023-04-21T21:17:43.078Z,6.40
2023-04-21T21:20:12.981Z,6.50
2023-04-21T21:23:33.153Z,6.80
2023-04-21T21:26:02.797Z,6.30
2023-04-21T21:32:32.138Z,5.90
2023-04-21T21:35:11.373Z,6.20
2023-04-21T21:37:41.298Z,6.20
2023-04-21T21:40:14.177Z,6.20
2023-04-21T21:42:43.854Z,6.30
2023-04-21T21:45:21.534Z,6.60
2023-04-21T21:52:08.432Z,5.80
2023-04-21T21:53:17.465Z,6.00
2023-04-21T21:54:41.089Z,5.80
2023-04-21T21:57:21.085Z,5.90
2023-04-21T22:00:04.557Z,6.10
2023-04-21T22:02:36.806Z,6.10
2023-04-21T22:05:07.534Z,6.00
2023-04-21T22:07:40.342Z,6.00
2023-04-21T22:10:14.423Z,5.00
2023-04-21T22:12:45.413Z,5.70
2023-04-21T22:15:16.354Z,4.80
2023-04-21T22:17:48.565Z,5.20
2023-04-21T22:20:36.720Z,5.40
2023-04-21T22:23:11.841Z,5.60
2023-04-21T22:25:41.888Z,5.40
2023-04-21T22:28:11.583Z,4.80
2023-04-21T22:30:41.473Z,5.10
2023-04-21T22:33:13.811Z,6.10
2023-04-21T22:35:43.927Z,4.90
2023-04-21T22:38:16.980Z,5.80
2023-04-21T22:40:48.129Z,4.90
2023-04-21T22:43:18.585Z,5.40
2023-04-21T22:45:50.187Z,5.30
2023-04-21T22:48:25.683Z,4.90
2023-04-21T22:50:58.613Z,5.10
2023-04-21T22:53:34.336Z,5.10
2023-04-21T22:56:08.029Z,5.30
2023-04-21T22:58:37.587Z,5.30
2023-04-21T23:01:13.291Z,4.90
2023-04-21T23:03:43.392Z,5.20
2023-04-21T23:20:57.697Z,4.40
2023-04-21T23:23:27.206Z,4.80
2023-04-21T23:25:56.808Z,5.20
2023-04-21T23:28:27.185Z,4.60
2023-04-21T23:30:56.676Z,5.20
2023-04-21T23:33:29.869Z,5.20
2023-04-21T23:36:03.279Z,4.80
2023-04-21T23:38:33.914Z,5.10
2023-04-21T23:41:06.278Z,4.60
2023-04-21T23:43:42.545Z,5.60
2023-04-21T23:46:12.846Z,5.40
2023-04-21T23:48:42.853Z,5.20
2023-04-21T23:51:18.788Z,5.00
2023-04-21T23:53:49.761Z,4.80
2023-04-21T23:56:24.060Z,4.90
2023-04-21T23:58:54.787Z,4.80
